臺北終端管制區 - 桃園北區雷達席

METAR RCTP 181130Z 07013KT 9999 FEW015 BKN024 14/11 Q1020 NOSIG RMK A3014=

站台狀態:Online
最後更新:2020-01-18 19:45:03